Neapolis, Ohio
Current Conditions -  °F | °C
As of 12:23 PM on Friday 31 Oct 2014 (Local Time) from KTOL Reporting Station
Light Rain Light Rain  
Wind Chill: 35°   Ceiling: 900
Heat Index: 41°   Visibility: 7mi
Dew Point: 37°   Wind: 10mph
Humidity: 87%   Direction: 320°NW
Pressure: 29.9"   Gusts: NA
Location:  41.49°N, 83.87°W
Report Text: KTOL 311623Z 32009KT 7SM -RA BKN009 OVC015 05/03 A2990 RMK AO2 P0000
Loading
Personal Weather Stations






























Interactive Weather Map
Tropical Storm Tracking
New forecast layout! Learn more

10-Day Weather Forecast

Advertisements
Track Severe Weather on mobile